sensor_id;sensor_type;location;lat;lon;timestamp;P1;durP1;ratioP1;P2;durP2;ratioP2
30149;SDS011;16962;48.646;9.026;2023-08-06T00:00:50;3.40;;;3.10;;
30149;SDS011;16962;48.646;9.026;2023-08-06T00:03:37;3.65;;;2.60;;
30149;SDS011;16962;48.646;9.026;2023-08-06T00:06:27;6.80;;;2.88;;
30149;SDS011;16962;48.646;9.026;2023-08-06T00:09:17;5.38;;;3.03;;
30149;SDS011;16962;48.646;9.026;2023-08-06T00:12:04;4.47;;;3.03;;
30149;SDS011;16962;48.646;9.026;2023-08-06T00:14:52;4.05;;;3.05;;
30149;SDS011;16962;48.646;9.026;2023-08-06T00:17:43;3.03;;;2.78;;
30149;SDS011;16962;48.646;9.026;2023-08-06T00:20:30;3.75;;;2.63;;
30149;SDS011;16962;48.646;9.026;2023-08-06T00:23:17;3.70;;;3.03;;
30149;SDS011;16962;48.646;9.026;2023-08-06T00:26:06;4.35;;;2.80;;
30149;SDS011;16962;48.646;9.026;2023-08-06T00:28:56;5.43;;;2.97;;
30149;SDS011;16962;48.646;9.026;2023-08-06T00:31:43;2.80;;;2.60;;
30149;SDS011;16962;48.646;9.026;2023-08-06T00:34:32;5.13;;;3.00;;
30149;SDS011;16962;48.646;9.026;2023-08-06T00:37:19;4.60;;;2.97;;
30149;SDS011;16962;48.646;9.026;2023-08-06T00:40:07;3.58;;;3.10;;
30149;SDS011;16962;48.646;9.026;2023-08-06T00:42:55;4.53;;;3.22;;
30149;SDS011;16962;48.646;9.026;2023-08-06T00:45:43;6.68;;;3.88;;
30149;SDS011;16962;48.646;9.026;2023-08-06T00:48:31;5.13;;;3.15;;
30149;SDS011;16962;48.646;9.026;2023-08-06T00:51:18;3.00;;;2.80;;
30149;SDS011;16962;48.646;9.026;2023-08-06T00:54:06;4.28;;;3.80;;
30149;SDS011;16962;48.646;9.026;2023-08-06T00:56:56;6.72;;;3.67;;
30149;SDS011;16962;48.646;9.026;2023-08-06T00:59:44;6.03;;;4.10;;
30149;SDS011;16962;48.646;9.026;2023-08-06T01:02:35;4.28;;;3.75;;
30149;SDS011;16962;48.646;9.026;2023-08-06T01:08:54;6.05;;;4.43;;
30149;SDS011;16962;48.646;9.026;2023-08-06T01:11:53;5.95;;;4.40;;
30149;SDS011;16962;48.646;9.026;2023-08-06T01:15:07;4.85;;;4.30;;
30149;SDS011;16962;48.646;9.026;2023-08-06T01:18:30;7.82;;;4.47;;
30149;SDS011;16962;48.646;9.026;2023-08-06T01:21:20;6.97;;;4.32;;
30149;SDS011;16962;48.646;9.026;2023-08-06T01:24:07;4.70;;;3.88;;
30149;SDS011;16962;48.646;9.026;2023-08-06T01:26:59;9.95;;;4.07;;
30149;SDS011;16962;48.646;9.026;2023-08-06T01:30:06;8.10;;;4.18;;
30149;SDS011;16962;48.646;9.026;2023-08-06T01:33:04;5.72;;;4.47;;
30149;SDS011;16962;48.646;9.026;2023-08-06T01:35:55;5.50;;;4.20;;
30149;SDS011;16962;48.646;9.026;2023-08-06T01:38:44;4.57;;;4.05;;
30149;SDS011;16962;48.646;9.026;2023-08-06T01:41:31;4.30;;;3.60;;
30149;SDS011;16962;48.646;9.026;2023-08-06T01:44:19;6.03;;;3.70;;
30149;SDS011;16962;48.646;9.026;2023-08-06T01:47:10;4.60;;;4.20;;
30149;SDS011;16962;48.646;9.026;2023-08-06T01:49:58;5.90;;;4.63;;
30149;SDS011;16962;48.646;9.026;2023-08-06T01:52:45;4.93;;;3.80;;
30149;SDS011;16962;48.646;9.026;2023-08-06T01:55:41;9.45;;;4.32;;
30149;SDS011;16962;48.646;9.026;2023-08-06T01:58:37;7.55;;;4.18;;
30149;SDS011;16962;48.646;9.026;2023-08-06T02:01:29;4.55;;;3.90;;
30149;SDS011;16962;48.646;9.026;2023-08-06T02:04:17;4.32;;;3.92;;
30149;SDS011;16962;48.646;9.026;2023-08-06T02:07:04;3.92;;;3.58;;
30149;SDS011;16962;48.646;9.026;2023-08-06T02:09:52;4.60;;;3.83;;
30149;SDS011;16962;48.646;9.026;2023-08-06T02:12:39;6.63;;;3.85;;
30149;SDS011;16962;48.646;9.026;2023-08-06T02:15:27;4.05;;;3.65;;
30149;SDS011;16962;48.646;9.026;2023-08-06T02:18:16;3.58;;;3.28;;
30149;SDS011;16962;48.646;9.026;2023-08-06T02:21:04;5.90;;;3.47;;
30149;SDS011;16962;48.646;9.026;2023-08-06T02:23:51;6.75;;;3.17;;
30149;SDS011;16962;48.646;9.026;2023-08-06T02:26:39;6.07;;;3.25;;
30149;SDS011;16962;48.646;9.026;2023-08-06T02:29:26;6.75;;;3.05;;
30149;SDS011;16962;48.646;9.026;2023-08-06T02:32:13;6.18;;;2.75;;
30149;SDS011;16962;48.646;9.026;2023-08-06T02:35:03;5.43;;;2.97;;
30149;SDS011;16962;48.646;9.026;2023-08-06T02:37:51;4.60;;;2.92;;
30149;SDS011;16962;48.646;9.026;2023-08-06T02:40:45;3.58;;;2.65;;
30149;SDS011;16962;48.646;9.026;2023-08-06T02:43:33;4.07;;;2.80;;
30149;SDS011;16962;48.646;9.026;2023-08-06T02:46:23;3.80;;;2.90;;
30149;SDS011;16962;48.646;9.026;2023-08-06T02:49:10;3.90;;;2.72;;
30149;SDS011;16962;48.646;9.026;2023-08-06T02:51:58;6.00;;;3.20;;
30149;SDS011;16962;48.646;9.026;2023-08-06T02:54:45;3.80;;;2.92;;
30149;SDS011;16962;48.646;9.026;2023-08-06T02:57:32;4.05;;;2.90;;
30149;SDS011;16962;48.646;9.026;2023-08-06T03:00:19;3.70;;;2.85;;
30149;SDS011;16962;48.646;9.026;2023-08-06T03:03:07;5.20;;;3.13;;
30149;SDS011;16962;48.646;9.026;2023-08-06T03:05:54;3.25;;;2.72;;
30149;SDS011;16962;48.646;9.026;2023-08-06T03:08:42;7.07;;;2.70;;
30149;SDS011;16962;48.646;9.026;2023-08-06T03:11:29;4.68;;;2.70;;
30149;SDS011;16962;48.646;9.026;2023-08-06T03:14:16;5.70;;;2.58;;
30149;SDS011;16962;48.646;9.026;2023-08-06T03:17:04;8.52;;;2.92;;
30149;SDS011;16962;48.646;9.026;2023-08-06T03:19:52;2.88;;;2.58;;
30149;SDS011;16962;48.646;9.026;2023-08-06T03:22:41;5.38;;;2.55;;
30149;SDS011;16962;48.646;9.026;2023-08-06T03:25:28;4.03;;;2.90;;
30149;SDS011;16962;48.646;9.026;2023-08-06T03:28:18;5.05;;;2.38;;
30149;SDS011;16962;48.646;9.026;2023-08-06T03:31:07;5.18;;;3.00;;
30149;SDS011;16962;48.646;9.026;2023-08-06T03:33:54;3.03;;;2.25;;
30149;SDS011;16962;48.646;9.026;2023-08-06T03:36:42;3.80;;;2.38;;
30149;SDS011;16962;48.646;9.026;2023-08-06T03:39:29;3.88;;;2.53;;
30149;SDS011;16962;48.646;9.026;2023-08-06T03:42:18;4.93;;;2.60;;
30149;SDS011;16962;48.646;9.026;2023-08-06T03:45:06;4.05;;;2.33;;
30149;SDS011;16962;48.646;9.026;2023-08-06T03:47:54;4.57;;;2.13;;
30149;SDS011;16962;48.646;9.026;2023-08-06T03:50:41;4.32;;;2.20;;
30149;SDS011;16962;48.646;9.026;2023-08-06T03:53:29;5.75;;;2.65;;
30149;SDS011;16962;48.646;9.026;2023-08-06T03:56:16;6.75;;;2.38;;
30149;SDS011;16962;48.646;9.026;2023-08-06T03:59:04;4.38;;;2.40;;
30149;SDS011;16962;48.646;9.026;2023-08-06T04:05:38;5.95;;;2.42;;
30149;SDS011;16962;48.646;9.026;2023-08-06T04:08:26;5.32;;;2.63;;
30149;SDS011;16962;48.646;9.026;2023-08-06T04:11:13;10.43;;;2.67;;
30149;SDS011;16962;48.646;9.026;2023-08-06T04:14:01;8.55;;;2.67;;
30149;SDS011;16962;48.646;9.026;2023-08-06T04:16:48;8.95;;;3.35;;
30149;SDS011;16962;48.646;9.026;2023-08-06T04:19:38;7.93;;;2.75;;
30149;SDS011;16962;48.646;9.026;2023-08-06T04:22:25;9.07;;;3.22;;
30149;SDS011;16962;48.646;9.026;2023-08-06T04:25:13;5.60;;;3.15;;
30149;SDS011;16962;48.646;9.026;2023-08-06T04:28:01;6.00;;;2.92;;
30149;SDS011;16962;48.646;9.026;2023-08-06T04:30:49;5.18;;;2.90;;
30149;SDS011;16962;48.646;9.026;2023-08-06T04:33:37;4.35;;;3.03;;
30149;SDS011;16962;48.646;9.026;2023-08-06T04:36:24;9.25;;;2.97;;
30149;SDS011;16962;48.646;9.026;2023-08-06T04:39:12;6.50;;;2.97;;
30149;SDS011;16962;48.646;9.026;2023-08-06T04:41:59;6.18;;;3.10;;
30149;SDS011;16962;48.646;9.026;2023-08-06T04:44:47;7.18;;;2.75;;
30149;SDS011;16962;48.646;9.026;2023-08-06T04:47:36;9.07;;;2.85;;
30149;SDS011;16962;48.646;9.026;2023-08-06T04:50:26;5.85;;;2.70;;
30149;SDS011;16962;48.646;9.026;2023-08-06T04:53:14;6.03;;;2.70;;
30149;SDS011;16962;48.646;9.026;2023-08-06T04:56:04;3.67;;;2.50;;
30149;SDS011;16962;48.646;9.026;2023-08-06T04:58:54;5.55;;;2.70;;
30149;SDS011;16962;48.646;9.026;2023-08-06T05:01:42;5.22;;;2.58;;
30149;SDS011;16962;48.646;9.026;2023-08-06T05:04:29;5.05;;;2.45;;
30149;SDS011;16962;48.646;9.026;2023-08-06T05:07:17;4.60;;;2.15;;
30149;SDS011;16962;48.646;9.026;2023-08-06T05:10:04;4.05;;;1.77;;
30149;SDS011;16962;48.646;9.026;2023-08-06T05:12:52;5.95;;;2.45;;
30149;SDS011;16962;48.646;9.026;2023-08-06T05:15:41;4.22;;;2.00;;
30149;SDS011;16962;48.646;9.026;2023-08-06T05:18:29;5.30;;;1.98;;
30149;SDS011;16962;48.646;9.026;2023-08-06T05:21:17;5.88;;;1.83;;
30149;SDS011;16962;48.646;9.026;2023-08-06T05:24:05;4.20;;;1.70;;
30149;SDS011;16962;48.646;9.026;2023-08-06T05:26:57;4.35;;;1.73;;
30149;SDS011;16962;48.646;9.026;2023-08-06T05:29:45;3.28;;;1.27;;
30149;SDS011;16962;48.646;9.026;2023-08-06T05:32:33;4.20;;;1.45;;
30149;SDS011;16962;48.646;9.026;2023-08-06T05:35:20;3.92;;;1.20;;
30149;SDS011;16962;48.646;9.026;2023-08-06T05:38:07;6.65;;;1.30;;
30149;SDS011;16962;48.646;9.026;2023-08-06T05:40:55;4.45;;;1.42;;
30149;SDS011;16962;48.646;9.026;2023-08-06T05:43:42;2.97;;;1.30;;
30149;SDS011;16962;48.646;9.026;2023-08-06T05:46:30;3.75;;;1.30;;
30149;SDS011;16962;48.646;9.026;2023-08-06T05:49:20;6.72;;;1.42;;
30149;SDS011;16962;48.646;9.026;2023-08-06T05:52:08;3.22;;;1.38;;
30149;SDS011;16962;48.646;9.026;2023-08-06T05:54:58;3.35;;;1.20;;
30149;SDS011;16962;48.646;9.026;2023-08-06T05:57:48;4.97;;;1.23;;
30149;SDS011;16962;48.646;9.026;2023-08-06T06:00:35;7.47;;;1.48;;
30149;SDS011;16962;48.646;9.026;2023-08-06T06:03:23;3.25;;;1.23;;
30149;SDS011;16962;48.646;9.026;2023-08-06T06:06:11;2.42;;;1.23;;
30149;SDS011;16962;48.646;9.026;2023-08-06T06:09:02;5.60;;;1.70;;
30149;SDS011;16962;48.646;9.026;2023-08-06T06:11:50;8.35;;;1.80;;
30149;SDS011;16962;48.646;9.026;2023-08-06T06:14:38;3.75;;;1.65;;
30149;SDS011;16962;48.646;9.026;2023-08-06T06:17:26;3.50;;;1.40;;
30149;SDS011;16962;48.646;9.026;2023-08-06T06:20:14;5.40;;;1.58;;
30149;SDS011;16962;48.646;9.026;2023-08-06T06:23:05;3.33;;;1.27;;
30149;SDS011;16962;48.646;9.026;2023-08-06T06:25:54;6.85;;;1.38;;
30149;SDS011;16962;48.646;9.026;2023-08-06T06:28:45;5.78;;;1.67;;
30149;SDS011;16962;48.646;9.026;2023-08-06T06:31:33;1.85;;;1.10;;
30149;SDS011;16962;48.646;9.026;2023-08-06T06:34:21;1.80;;;1.10;;
30149;SDS011;16962;48.646;9.026;2023-08-06T06:37:08;5.22;;;1.50;;
30149;SDS011;16962;48.646;9.026;2023-08-06T06:39:56;2.60;;;1.40;;
30149;SDS011;16962;48.646;9.026;2023-08-06T06:42:43;3.78;;;1.20;;
30149;SDS011;16962;48.646;9.026;2023-08-06T06:45:31;3.45;;;1.20;;
30149;SDS011;16962;48.646;9.026;2023-08-06T06:48:21;2.17;;;1.48;;
30149;SDS011;16962;48.646;9.026;2023-08-06T06:51:08;4.15;;;1.40;;
30149;SDS011;16962;48.646;9.026;2023-08-06T06:53:59;2.10;;;1.20;;
30149;SDS011;16962;48.646;9.026;2023-08-06T06:56:46;2.30;;;1.30;;
30149;SDS011;16962;48.646;9.026;2023-08-06T06:59:35;2.08;;;1.08;;
30149;SDS011;16962;48.646;9.026;2023-08-06T07:11:04;1.27;;;0.90;;
30149;SDS011;16962;48.646;9.026;2023-08-06T07:34:40;0.40;;;0.40;;
30149;SDS011;16962;48.646;9.026;2023-08-06T08:56:16;1.05;;;0.32;;
30149;SDS011;16962;48.646;9.026;2023-08-06T09:12:37;0.95;;;0.60;;
30149;SDS011;16962;48.646;9.026;2023-08-06T09:33:22;0.45;;;0.40;;
30149;SDS011;16962;48.646;9.026;2023-08-06T09:56:46;0.63;;;0.40;;
30149;SDS011;16962;48.646;9.026;2023-08-06T10:04:44;1.92;;;0.30;;
30149;SDS011;16962;48.646;9.026;2023-08-06T10:23:06;0.65;;;0.50;;
30149;SDS011;16962;48.646;9.026;2023-08-06T10:26:12;0.32;;;0.32;;
30149;SDS011;16962;48.646;9.026;2023-08-06T10:40:29;4.97;;;0.50;;
30149;SDS011;16962;48.646;9.026;2023-08-06T10:46:28;2.92;;;0.40;;
30149;SDS011;16962;48.646;9.026;2023-08-06T10:49:19;1.55;;;0.50;;
30149;SDS011;16962;48.646;9.026;2023-08-06T10:52:09;2.25;;;0.47;;
30149;SDS011;16962;48.646;9.026;2023-08-06T10:54:58;0.82;;;0.40;;
30149;SDS011;16962;48.646;9.026;2023-08-06T10:57:48;2.83;;;0.50;;
30149;SDS011;16962;48.646;9.026;2023-08-06T11:00:39;0.88;;;0.55;;
30149;SDS011;16962;48.646;9.026;2023-08-06T11:03:35;0.63;;;0.45;;
30149;SDS011;16962;48.646;9.026;2023-08-06T11:06:24;0.40;;;0.40;;
30149;SDS011;16962;48.646;9.026;2023-08-06T11:09:29;1.05;;;0.47;;
30149;SDS011;16962;48.646;9.026;2023-08-06T11:12:49;0.43;;;0.40;;
30149;SDS011;16962;48.646;9.026;2023-08-06T11:15:38;1.40;;;0.40;;
30149;SDS011;16962;48.646;9.026;2023-08-06T11:18:33;1.55;;;1.05;;
30149;SDS011;16962;48.646;9.026;2023-08-06T11:21:21;0.82;;;0.55;;
30149;SDS011;16962;48.646;9.026;2023-08-06T11:24:10;0.65;;;0.30;;
30149;SDS011;16962;48.646;9.026;2023-08-06T11:27:01;2.53;;;0.50;;
30149;SDS011;16962;48.646;9.026;2023-08-06T11:29:49;0.50;;;0.50;;
30149;SDS011;16962;48.646;9.026;2023-08-06T11:32:44;0.90;;;0.45;;
30149;SDS011;16962;48.646;9.026;2023-08-06T11:35:34;1.65;;;0.50;;
30149;SDS011;16962;48.646;9.026;2023-08-06T11:38:25;0.65;;;0.40;;
30149;SDS011;16962;48.646;9.026;2023-08-06T11:41:19;0.57;;;0.50;;
30149;SDS011;16962;48.646;9.026;2023-08-06T11:44:11;1.38;;;0.40;;
30149;SDS011;16962;48.646;9.026;2023-08-06T11:47:03;0.50;;;0.50;;
30149;SDS011;16962;48.646;9.026;2023-08-06T11:49:52;0.40;;;0.40;;
30149;SDS011;16962;48.646;9.026;2023-08-06T11:52:42;0.90;;;0.60;;
30149;SDS011;16962;48.646;9.026;2023-08-06T11:55:35;1.55;;;0.32;;
30149;SDS011;16962;48.646;9.026;2023-08-06T11:58:30;0.50;;;0.50;;
30149;SDS011;16962;48.646;9.026;2023-08-06T12:01:25;0.85;;;0.40;;
30149;SDS011;16962;48.646;9.026;2023-08-06T12:04:13;2.10;;;0.50;;
30149;SDS011;16962;48.646;9.026;2023-08-06T12:07:04;1.67;;;0.60;;
30149;SDS011;16962;48.646;9.026;2023-08-06T12:10:08;1.85;;;0.73;;
30149;SDS011;16962;48.646;9.026;2023-08-06T12:12:56;0.65;;;0.55;;
30149;SDS011;16962;48.646;9.026;2023-08-06T12:15:47;2.15;;;0.60;;
30149;SDS011;16962;48.646;9.026;2023-08-06T12:18:38;0.75;;;0.70;;
30149;SDS011;16962;48.646;9.026;2023-08-06T12:21:26;2.80;;;0.90;;
30149;SDS011;16962;48.646;9.026;2023-08-06T12:24:14;2.63;;;0.90;;
30149;SDS011;16962;48.646;9.026;2023-08-06T12:27:01;1.20;;;0.90;;
30149;SDS011;16962;48.646;9.026;2023-08-06T12:29:50;2.58;;;0.90;;
30149;SDS011;16962;48.646;9.026;2023-08-06T12:32:39;1.67;;;0.95;;
30149;SDS011;16962;48.646;9.026;2023-08-06T12:35:33;1.10;;;1.00;;
30149;SDS011;16962;48.646;9.026;2023-08-06T12:38:20;3.63;;;1.00;;
30149;SDS011;16962;48.646;9.026;2023-08-06T12:41:10;1.08;;;0.88;;
30149;SDS011;16962;48.646;9.026;2023-08-06T12:43:58;1.30;;;0.90;;
30149;SDS011;16962;48.646;9.026;2023-08-06T12:46:47;0.70;;;0.70;;
30149;SDS011;16962;48.646;9.026;2023-08-06T12:49:34;1.00;;;0.88;;
30149;SDS011;16962;48.646;9.026;2023-08-06T12:52:22;0.80;;;0.80;;
30149;SDS011;16962;48.646;9.026;2023-08-06T12:55:11;1.10;;;0.80;;
30149;SDS011;16962;48.646;9.026;2023-08-06T12:57:58;2.78;;;0.82;;
30149;SDS011;16962;48.646;9.026;2023-08-06T13:00:48;1.17;;;0.85;;
30149;SDS011;16962;48.646;9.026;2023-08-06T13:03:36;1.80;;;1.00;;
30149;SDS011;16962;48.646;9.026;2023-08-06T13:06:23;1.33;;;0.98;;
30149;SDS011;16962;48.646;9.026;2023-08-06T13:09:14;1.08;;;0.88;;
30149;SDS011;16962;48.646;9.026;2023-08-06T13:12:06;0.95;;;0.85;;
30149;SDS011;16962;48.646;9.026;2023-08-06T13:14:53;0.80;;;0.80;;
30149;SDS011;16962;48.646;9.026;2023-08-06T13:17:47;1.08;;;0.80;;
30149;SDS011;16962;48.646;9.026;2023-08-06T13:20:38;1.17;;;0.70;;
30149;SDS011;16962;48.646;9.026;2023-08-06T13:23:29;2.63;;;0.85;;
30149;SDS011;16962;48.646;9.026;2023-08-06T13:26:30;0.80;;;0.60;;
30149;SDS011;16962;48.646;9.026;2023-08-06T13:29:18;1.00;;;0.70;;
30149;SDS011;16962;48.646;9.026;2023-08-06T13:32:13;2.92;;;1.15;;
30149;SDS011;16962;48.646;9.026;2023-08-06T13:35:04;0.63;;;0.63;;
30149;SDS011;16962;48.646;9.026;2023-08-06T13:38:00;3.13;;;0.70;;
30149;SDS011;16962;48.646;9.026;2023-08-06T13:40:49;0.80;;;0.50;;
30149;SDS011;16962;48.646;9.026;2023-08-06T13:43:39;0.85;;;0.50;;
30149;SDS011;16962;48.646;9.026;2023-08-06T13:46:26;2.60;;;0.40;;
30149;SDS011;16962;48.646;9.026;2023-08-06T13:49:25;0.38;;;0.35;;
30149;SDS011;16962;48.646;9.026;2023-08-06T13:52:17;0.77;;;0.40;;
30149;SDS011;16962;48.646;9.026;2023-08-06T13:55:08;0.68;;;0.60;;
30149;SDS011;16962;48.646;9.026;2023-08-06T13:57:56;0.57;;;0.30;;
30149;SDS011;16962;48.646;9.026;2023-08-06T14:00:43;1.13;;;0.60;;
30149;SDS011;16962;48.646;9.026;2023-08-06T14:03:32;0.80;;;0.50;;
30149;SDS011;16962;48.646;9.026;2023-08-06T14:06:23;1.85;;;0.75;;
30149;SDS011;16962;48.646;9.026;2023-08-06T14:09:14;0.43;;;0.43;;
30149;SDS011;16962;48.646;9.026;2023-08-06T14:12:07;0.80;;;0.80;;
30149;SDS011;16962;48.646;9.026;2023-08-06T14:14:56;1.67;;;0.90;;
30149;SDS011;16962;48.646;9.026;2023-08-06T14:17:43;1.17;;;0.77;;
30149;SDS011;16962;48.646;9.026;2023-08-06T14:20:46;2.50;;;0.85;;
30149;SDS011;16962;48.646;9.026;2023-08-06T14:23:34;0.80;;;0.80;;
30149;SDS011;16962;48.646;9.026;2023-08-06T14:26:22;0.70;;;0.70;;
30149;SDS011;16962;48.646;9.026;2023-08-06T14:29:09;2.22;;;0.70;;
30149;SDS011;16962;48.646;9.026;2023-08-06T14:31:58;2.10;;;0.80;;
30149;SDS011;16962;48.646;9.026;2023-08-06T14:34:49;2.50;;;0.80;;
30149;SDS011;16962;48.646;9.026;2023-08-06T14:37:37;0.77;;;0.65;;
30149;SDS011;16962;48.646;9.026;2023-08-06T14:40:26;1.10;;;0.70;;
30149;SDS011;16962;48.646;9.026;2023-08-06T14:43:18;1.65;;;0.88;;
30149;SDS011;16962;48.646;9.026;2023-08-06T14:46:06;0.88;;;0.50;;
30149;SDS011;16962;48.646;9.026;2023-08-06T14:48:57;0.50;;;0.50;;
30149;SDS011;16962;48.646;9.026;2023-08-06T14:51:54;0.43;;;0.40;;
30149;SDS011;16962;48.646;9.026;2023-08-06T14:54:46;0.50;;;0.50;;
30149;SDS011;16962;48.646;9.026;2023-08-06T14:57:36;4.50;;;0.57;;
30149;SDS011;16962;48.646;9.026;2023-08-06T15:00:27;0.70;;;0.70;;
30149;SDS011;16962;48.646;9.026;2023-08-06T15:03:15;2.00;;;0.70;;
30149;SDS011;16962;48.646;9.026;2023-08-06T15:06:02;0.90;;;0.73;;
30149;SDS011;16962;48.646;9.026;2023-08-06T15:08:54;1.98;;;0.88;;
30149;SDS011;16962;48.646;9.026;2023-08-06T15:14:52;1.08;;;1.05;;
30149;SDS011;16962;48.646;9.026;2023-08-06T15:17:43;1.05;;;0.95;;
30149;SDS011;16962;48.646;9.026;2023-08-06T15:20:42;1.63;;;0.98;;
30149;SDS011;16962;48.646;9.026;2023-08-06T15:23:31;1.13;;;0.90;;
30149;SDS011;16962;48.646;9.026;2023-08-06T15:26:26;1.33;;;0.80;;
30149;SDS011;16962;48.646;9.026;2023-08-06T15:29:20;1.38;;;1.10;;
30149;SDS011;16962;48.646;9.026;2023-08-06T15:32:10;3.45;;;0.65;;
30149;SDS011;16962;48.646;9.026;2023-08-06T15:35:03;1.58;;;0.80;;
30149;SDS011;16962;48.646;9.026;2023-08-06T15:37:57;1.27;;;0.73;;
30149;SDS011;16962;48.646;9.026;2023-08-06T15:40:46;1.70;;;0.70;;
30149;SDS011;16962;48.646;9.026;2023-08-06T15:43:37;0.70;;;0.70;;
30149;SDS011;16962;48.646;9.026;2023-08-06T15:46:27;1.38;;;0.60;;
30149;SDS011;16962;48.646;9.026;2023-08-06T15:49:16;6.38;;;0.90;;
30149;SDS011;16962;48.646;9.026;2023-08-06T15:52:04;1.65;;;0.93;;
30149;SDS011;16962;48.646;9.026;2023-08-06T15:54:52;0.63;;;0.63;;
30149;SDS011;16962;48.646;9.026;2023-08-06T15:57:40;3.05;;;0.90;;
30149;SDS011;16962;48.646;9.026;2023-08-06T16:00:27;0.95;;;0.63;;
30149;SDS011;16962;48.646;9.026;2023-08-06T16:03:40;1.45;;;0.80;;
30149;SDS011;16962;48.646;9.026;2023-08-06T16:09:20;4.40;;;0.90;;
30149;SDS011;16962;48.646;9.026;2023-08-06T16:12:23;1.88;;;0.80;;
30149;SDS011;16962;48.646;9.026;2023-08-06T16:15:15;1.23;;;1.13;;
30149;SDS011;16962;48.646;9.026;2023-08-06T16:18:06;3.10;;;0.98;;
30149;SDS011;16962;48.646;9.026;2023-08-06T16:20:56;0.85;;;0.70;;
30149;SDS011;16962;48.646;9.026;2023-08-06T16:23:44;2.08;;;1.00;;
30149;SDS011;16962;48.646;9.026;2023-08-06T16:26:34;1.38;;;0.80;;
30149;SDS011;16962;48.646;9.026;2023-08-06T16:29:28;1.67;;;0.90;;
30149;SDS011;16962;48.646;9.026;2023-08-06T16:32:16;1.27;;;0.90;;
30149;SDS011;16962;48.646;9.026;2023-08-06T16:35:04;5.63;;;4.43;;
30149;SDS011;16962;48.646;9.026;2023-08-06T16:37:53;7.93;;;6.25;;
30149;SDS011;16962;48.646;9.026;2023-08-06T16:40:55;11.35;;;6.70;;
30149;SDS011;16962;48.646;9.026;2023-08-06T16:43:45;1.55;;;1.08;;
30149;SDS011;16962;48.646;9.026;2023-08-06T16:46:36;3.10;;;1.10;;
30149;SDS011;16962;48.646;9.026;2023-08-06T16:49:25;3.03;;;1.48;;
30149;SDS011;16962;48.646;9.026;2023-08-06T16:52:15;1.60;;;1.10;;
30149;SDS011;16962;48.646;9.026;2023-08-06T16:55:05;1.33;;;1.10;;
30149;SDS011;16962;48.646;9.026;2023-08-06T16:58:04;1.58;;;1.00;;
30149;SDS011;16962;48.646;9.026;2023-08-06T17:00:54;2.55;;;1.00;;
30149;SDS011;16962;48.646;9.026;2023-08-06T17:03:58;4.32;;;1.58;;
30149;SDS011;16962;48.646;9.026;2023-08-06T17:07:17;1.88;;;0.90;;
30149;SDS011;16962;48.646;9.026;2023-08-06T17:10:34;1.63;;;1.20;;
30149;SDS011;16962;48.646;9.026;2023-08-06T17:13:50;1.50;;;1.17;;
30149;SDS011;16962;48.646;9.026;2023-08-06T17:16:41;3.33;;;1.40;;
30149;SDS011;16962;48.646;9.026;2023-08-06T17:19:35;3.75;;;1.85;;
30149;SDS011;16962;48.646;9.026;2023-08-06T17:22:32;1.33;;;1.23;;
30149;SDS011;16962;48.646;9.026;2023-08-06T17:25:54;2.55;;;1.40;;
30149;SDS011;16962;48.646;9.026;2023-08-06T17:28:43;2.53;;;1.75;;
30149;SDS011;16962;48.646;9.026;2023-08-06T17:31:31;2.70;;;1.75;;
30149;SDS011;16962;48.646;9.026;2023-08-06T17:34:21;5.68;;;2.13;;
30149;SDS011;16962;48.646;9.026;2023-08-06T17:37:09;2.60;;;2.03;;
30149;SDS011;16962;48.646;9.026;2023-08-06T17:39:59;4.93;;;1.67;;
30149;SDS011;16962;48.646;9.026;2023-08-06T17:42:50;4.90;;;1.60;;
30149;SDS011;16962;48.646;9.026;2023-08-06T17:45:38;2.83;;;1.40;;
30149;SDS011;16962;48.646;9.026;2023-08-06T17:48:27;3.88;;;1.70;;
30149;SDS011;16962;48.646;9.026;2023-08-06T17:51:17;5.03;;;2.13;;
30149;SDS011;16962;48.646;9.026;2023-08-06T17:54:07;2.88;;;1.73;;
30149;SDS011;16962;48.646;9.026;2023-08-06T17:56:56;5.07;;;1.73;;
30149;SDS011;16962;48.646;9.026;2023-08-06T17:59:48;6.10;;;1.70;;
30149;SDS011;16962;48.646;9.026;2023-08-06T18:02:36;2.45;;;1.45;;
30149;SDS011;16962;48.646;9.026;2023-08-06T18:05:29;4.18;;;1.60;;
30149;SDS011;16962;48.646;9.026;2023-08-06T18:08:22;4.15;;;1.60;;
30149;SDS011;16962;48.646;9.026;2023-08-06T18:11:10;4.70;;;1.67;;
30149;SDS011;16962;48.646;9.026;2023-08-06T18:14:01;2.75;;;1.80;;
30149;SDS011;16962;48.646;9.026;2023-08-06T18:16:49;3.80;;;1.75;;
30149;SDS011;16962;48.646;9.026;2023-08-06T18:19:37;2.92;;;1.80;;
30149;SDS011;16962;48.646;9.026;2023-08-06T18:22:25;6.90;;;1.70;;
30149;SDS011;16962;48.646;9.026;2023-08-06T18:25:12;2.17;;;1.50;;
30149;SDS011;16962;48.646;9.026;2023-08-06T18:28:03;4.70;;;1.63;;
30149;SDS011;16962;48.646;9.026;2023-08-06T18:30:51;2.47;;;1.60;;
30149;SDS011;16962;48.646;9.026;2023-08-06T18:33:39;3.60;;;1.83;;
30149;SDS011;16962;48.646;9.026;2023-08-06T18:36:30;5.10;;;1.80;;
30149;SDS011;16962;48.646;9.026;2023-08-06T18:39:21;2.60;;;1.60;;
30149;SDS011;16962;48.646;9.026;2023-08-06T18:42:09;2.75;;;1.83;;
30149;SDS011;16962;48.646;9.026;2023-08-06T18:44:56;9.27;;;2.67;;
30149;SDS011;16962;48.646;9.026;2023-08-06T18:47:44;2.35;;;1.60;;
30149;SDS011;16962;48.646;9.026;2023-08-06T18:50:32;8.52;;;2.85;;
30149;SDS011;16962;48.646;9.026;2023-08-06T18:53:24;3.10;;;2.00;;
30149;SDS011;16962;48.646;9.026;2023-08-06T18:56:14;6.93;;;1.85;;
30149;SDS011;16962;48.646;9.026;2023-08-06T18:59:06;4.25;;;1.90;;
30149;SDS011;16962;48.646;9.026;2023-08-06T19:02:03;3.22;;;1.75;;
30149;SDS011;16962;48.646;9.026;2023-08-06T19:04:54;4.43;;;1.77;;
30149;SDS011;16962;48.646;9.026;2023-08-06T19:07:51;4.82;;;2.30;;
30149;SDS011;16962;48.646;9.026;2023-08-06T19:10:39;7.88;;;2.28;;
30149;SDS011;16962;48.646;9.026;2023-08-06T19:13:27;7.50;;;2.10;;
30149;SDS011;16962;48.646;9.026;2023-08-06T19:16:17;5.40;;;2.17;;
30149;SDS011;16962;48.646;9.026;2023-08-06T19:19:07;4.88;;;2.13;;
30149;SDS011;16962;48.646;9.026;2023-08-06T19:21:55;3.85;;;2.20;;
30149;SDS011;16962;48.646;9.026;2023-08-06T19:24:43;4.57;;;1.88;;
30149;SDS011;16962;48.646;9.026;2023-08-06T19:27:33;5.40;;;2.47;;
30149;SDS011;16962;48.646;9.026;2023-08-06T19:30:22;3.75;;;1.98;;
30149;SDS011;16962;48.646;9.026;2023-08-06T19:33:12;2.50;;;2.22;;
30149;SDS011;16962;48.646;9.026;2023-08-06T19:36:03;5.97;;;2.28;;
30149;SDS011;16962;48.646;9.026;2023-08-06T19:38:51;5.05;;;1.95;;
30149;SDS011;16962;48.646;9.026;2023-08-06T19:41:39;3.35;;;2.00;;
30149;SDS011;16962;48.646;9.026;2023-08-06T19:44:29;4.43;;;2.10;;
30149;SDS011;16962;48.646;9.026;2023-08-06T19:47:17;5.55;;;2.15;;
30149;SDS011;16962;48.646;9.026;2023-08-06T19:50:05;5.60;;;1.85;;
30149;SDS011;16962;48.646;9.026;2023-08-06T19:52:53;3.60;;;1.90;;
30149;SDS011;16962;48.646;9.026;2023-08-06T19:55:41;3.45;;;1.80;;
30149;SDS011;16962;48.646;9.026;2023-08-06T19:58:37;3.78;;;1.63;;
30149;SDS011;16962;48.646;9.026;2023-08-06T20:01:27;2.40;;;1.60;;
30149;SDS011;16962;48.646;9.026;2023-08-06T20:04:20;8.20;;;1.67;;
30149;SDS011;16962;48.646;9.026;2023-08-06T20:07:08;5.53;;;1.85;;
30149;SDS011;16962;48.646;9.026;2023-08-06T20:09:56;2.35;;;1.45;;
30149;SDS011;16962;48.646;9.026;2023-08-06T20:12:43;4.20;;;1.77;;
30149;SDS011;16962;48.646;9.026;2023-08-06T20:15:37;3.25;;;1.40;;
30149;SDS011;16962;48.646;9.026;2023-08-06T20:18:27;5.68;;;1.70;;
30149;SDS011;16962;48.646;9.026;2023-08-06T20:21:15;3.03;;;1.58;;
30149;SDS011;16962;48.646;9.026;2023-08-06T20:24:04;2.97;;;1.73;;
30149;SDS011;16962;48.646;9.026;2023-08-06T20:26:52;2.85;;;1.67;;
30149;SDS011;16962;48.646;9.026;2023-08-06T20:29:45;2.60;;;1.50;;
30149;SDS011;16962;48.646;9.026;2023-08-06T20:32:32;2.70;;;1.65;;
30149;SDS011;16962;48.646;9.026;2023-08-06T20:35:20;3.47;;;1.95;;